Pagrindinis puslapis
METAR-TAF:

METAR-TAF

Oro uostai :

Kanai, Prancūzija

platuma: 43-33N, ilguma: 006-57E, Aukštis: 3 m

Dabartinis oras

Ataskaita buvo paskelbta 34 minutes, ne 23:30 UTC
Vėjas 5 kt iš Šiaurės, svyruoja nuo Šiaurės/Šiaurės Vakarų ir Šiaurės/Šiaurės Rytų
Temperatūra 9°C
Drėgmė 61%
Slėgis 1027 hPa
Matomumas 10 km arba daugiau
nėra debesų žemiau 1500 m ir nėra kamuolinių lietaus debesų

METAR: LFMD 072330Z AUTO 36005KT 330V030 CAVOK 09/02 Q1027

Laikas: 02:04 (00:04 UTC)


TAF: trūkstamas

Orai ataskaitas ir orų prognozės (METAR, TAF).

turimą stotys yra geltonos ir raudonos taškus žemėlapyje.

Perkelti pele per norėdami pamatyti stoties vardą.

Tada spustelėkite, norėdami matyti oro stebėjimo ir prognozės.

Norėdami pakeisti žemėlapį: spustelėkite ant žalios mygtukų su juodo kryžiaus žemyn,; žalią mygtuką su brūkšneliu, jei norite nutolinti; arba žalių rodyklių gretimoms žemėlapius.


METAR-TAF: